createdAt,value
2023-01-26T00:00:50.697Z,0.50
2023-01-26T00:03:39.323Z,0.40
2023-01-26T00:06:27.719Z,0.40
2023-01-26T00:09:17.219Z,0.40
2023-01-26T00:12:05.923Z,0.40
2023-01-26T00:14:54.209Z,0.40
2023-01-26T00:17:42.359Z,0.30
2023-01-26T00:20:31.315Z,0.30
2023-01-26T00:23:19.468Z,0.30
2023-01-26T00:26:10.075Z,0.30
2023-01-26T00:28:58.227Z,0.40
2023-01-26T00:31:46.438Z,0.40
2023-01-26T00:34:34.676Z,0.50
2023-01-26T00:37:22.913Z,0.60
2023-01-26T00:40:12.524Z,0.60
2023-01-26T00:43:02.165Z,0.70
2023-01-26T00:45:50.332Z,0.70
2023-01-26T00:48:38.476Z,0.60
2023-01-26T00:51:26.637Z,0.60
2023-01-26T00:54:14.965Z,0.60
2023-01-26T00:57:03.124Z,0.50
2023-01-26T00:59:52.655Z,0.40
2023-01-26T01:02:40.814Z,0.30
2023-01-26T01:05:30.976Z,0.30
2023-01-26T01:08:19.100Z,0.30
2023-01-26T01:11:09.428Z,0.30
2023-01-26T01:13:57.579Z,0.30
2023-01-26T01:16:47.173Z,0.40
2023-01-26T01:19:35.303Z,0.50
2023-01-26T01:22:23.482Z,0.50
2023-01-26T01:25:11.656Z,0.50
2023-01-26T01:27:59.829Z,0.60
2023-01-26T01:30:48.086Z,0.70
2023-01-26T01:33:37.621Z,0.70
2023-01-26T01:36:26.345Z,0.70
2023-01-26T01:39:14.510Z,0.60
2023-01-26T01:42:02.691Z,0.60
2023-01-26T01:45:30.799Z,0.60
2023-01-26T01:48:23.976Z,0.60
2023-01-26T01:51:19.066Z,0.50
2023-01-26T01:54:11.682Z,0.60
2023-01-26T01:57:03.654Z,0.60
2023-01-26T01:59:56.980Z,0.60
2023-01-26T02:03:06.351Z,0.50
2023-01-26T02:05:58.370Z,0.50
2023-01-26T02:08:51.593Z,0.40
2023-01-26T02:11:44.885Z,0.50
2023-01-26T02:14:34.581Z,0.50
2023-01-26T02:17:22.770Z,0.50
2023-01-26T02:20:18.925Z,0.50
2023-01-26T02:23:16.996Z,0.60
2023-01-26T02:26:09.626Z,0.60
2023-01-26T02:28:58.171Z,0.70
2023-01-26T02:31:46.880Z,0.70
2023-01-26T02:34:35.302Z,0.70
2023-01-26T02:37:23.463Z,0.80
2023-01-26T02:40:19.541Z,0.80
2023-01-26T02:43:09.123Z,0.80
2023-01-26T02:45:57.283Z,0.80
2023-01-26T02:49:02.910Z,0.80
2023-01-26T02:51:51.048Z,0.90
2023-01-26T02:54:56.875Z,0.90
2023-01-26T02:57:46.702Z,0.80
2023-01-26T03:00:38.033Z,0.80
2023-01-26T03:03:41.708Z,0.90
2023-01-26T03:06:30.084Z,0.90
2023-01-26T03:09:18.244Z,0.90
2023-01-26T03:12:06.814Z,0.90
2023-01-26T03:15:09.015Z,0.90
2023-01-26T03:18:21.656Z,0.90
2023-01-26T03:21:31.251Z,0.80
2023-01-26T03:24:37.017Z,0.70
2023-01-26T03:27:28.193Z,0.80
2023-01-26T03:30:17.224Z,0.70
2023-01-26T03:33:06.757Z,0.50
2023-01-26T03:35:55.814Z,0.50
2023-01-26T03:38:43.981Z,0.50
2023-01-26T03:41:49.494Z,0.60
2023-01-26T03:44:55.117Z,0.60
2023-01-26T03:48:01.008Z,0.50
2023-01-26T03:51:08.329Z,0.60
2023-01-26T03:54:14.279Z,0.60
2023-01-26T03:57:02.388Z,0.50
2023-01-26T03:59:50.552Z,0.50
2023-01-26T04:02:56.337Z,0.50
2023-01-26T04:06:15.510Z,0.50
2023-01-26T04:09:06.221Z,0.50
2023-01-26T04:11:54.936Z,0.40
2023-01-26T04:15:00.575Z,0.40
2023-01-26T04:18:06.321Z,0.30
2023-01-26T04:21:12.123Z,0.30
2023-01-26T04:24:01.461Z,0.20
2023-01-26T04:26:51.208Z,0.20
2023-01-26T04:29:39.393Z,0.20
2023-01-26T04:32:27.669Z,0.20
2023-01-26T04:35:15.998Z,0.20
2023-01-26T04:38:04.127Z,0.20
2023-01-26T04:40:54.633Z,0.20
2023-01-26T04:43:44.268Z,0.20
2023-01-26T04:46:33.320Z,0.20
2023-01-26T04:49:21.616Z,0.20
2023-01-26T04:52:09.829Z,0.30
2023-01-26T04:54:57.997Z,0.40
2023-01-26T04:57:46.167Z,0.30
2023-01-26T05:00:35.647Z,0.30
2023-01-26T05:03:24.106Z,0.20
2023-01-26T05:06:12.382Z,0.20
2023-01-26T05:09:00.604Z,0.20
2023-01-26T05:11:48.774Z,0.20
2023-01-26T05:14:36.936Z,0.10
2023-01-26T05:17:26.825Z,0.00
2023-01-26T05:20:15.203Z,0.00
2023-01-26T05:23:03.415Z,0.00
2023-01-26T05:25:51.739Z,0.00
2023-01-26T05:28:39.903Z,0.00
2023-01-26T05:31:28.112Z,0.00
2023-01-26T05:34:17.645Z,0.00
2023-01-26T05:37:06.067Z,0.00
2023-01-26T05:39:54.229Z,-0.10
2023-01-26T05:42:43.927Z,-0.10
2023-01-26T05:45:32.185Z,-0.10
2023-01-26T05:48:20.366Z,0.00
2023-01-26T05:51:09.883Z,0.00
2023-01-26T05:53:58.051Z,0.00
2023-01-26T05:56:46.234Z,0.10
2023-01-26T05:59:34.737Z,0.10
2023-01-26T06:02:23.077Z,0.10
2023-01-26T06:05:11.756Z,0.10
2023-01-26T06:08:01.220Z,0.20
2023-01-26T06:10:49.397Z,0.20
2023-01-26T06:13:37.560Z,0.10
2023-01-26T06:16:25.747Z,0.20
2023-01-26T06:19:14.147Z,0.20
2023-01-26T06:22:02.351Z,0.30
2023-01-26T06:24:51.847Z,0.30
2023-01-26T06:27:42.265Z,0.30
2023-01-26T06:30:30.853Z,0.20
2023-01-26T06:33:19.128Z,0.20
2023-01-26T06:36:09.976Z,0.20
2023-01-26T06:39:00.614Z,0.20
2023-01-26T06:41:50.441Z,0.30
2023-01-26T06:44:38.683Z,0.30
2023-01-26T06:47:26.996Z,0.30
2023-01-26T06:50:16.413Z,0.20
2023-01-26T06:53:22.725Z,0.10
2023-01-26T06:56:10.917Z,0.00
2023-01-26T06:59:00.468Z,0.00
2023-01-26T07:01:49.909Z,0.00
2023-01-26T07:04:38.083Z,0.00
2023-01-26T07:07:26.221Z,0.00
2023-01-26T07:10:14.413Z,0.00
2023-01-26T07:13:04.075Z,0.00
2023-01-26T07:15:53.619Z,0.10
2023-01-26T07:18:42.266Z,0.10
2023-01-26T07:21:30.726Z,0.10
2023-01-26T07:24:21.928Z,0.10
2023-01-26T07:27:10.099Z,0.00
2023-01-26T07:29:58.321Z,-0.10
2023-01-26T07:32:47.851Z,-0.10
2023-01-26T07:35:36.048Z,-0.10
2023-01-26T07:38:24.633Z,-0.10
2023-01-26T07:41:13.857Z,-0.10
2023-01-26T07:44:02.155Z,0.00
2023-01-26T07:46:50.446Z,0.00
2023-01-26T07:49:40.021Z,0.00
2023-01-26T07:52:28.214Z,-0.10
2023-01-26T07:55:16.624Z,-0.20
2023-01-26T07:58:04.760Z,-0.20
2023-01-26T08:00:52.953Z,-0.30
2023-01-26T08:03:42.024Z,-0.30
2023-01-26T08:06:31.543Z,-0.30
2023-01-26T08:09:20.684Z,-0.20
2023-01-26T08:12:09.128Z,-0.20
2023-01-26T08:14:57.304Z,-0.20
2023-01-26T08:17:45.527Z,-0.20
2023-01-26T08:20:33.713Z,-0.20
2023-01-26T08:23:23.372Z,-0.30
2023-01-26T08:26:14.076Z,-0.30
2023-01-26T08:29:02.273Z,-0.30
2023-01-26T08:31:50.533Z,-0.30
2023-01-26T08:34:38.760Z,-0.30
2023-01-26T08:37:26.978Z,-0.30
2023-01-26T08:40:17.160Z,-0.30
2023-01-26T08:43:05.522Z,-0.30
2023-01-26T08:45:53.875Z,-0.30
2023-01-26T08:48:42.196Z,-0.30
2023-01-26T08:51:30.403Z,-0.30
2023-01-26T08:54:18.776Z,-0.40
2023-01-26T08:57:08.548Z,-0.40
2023-01-26T08:59:56.754Z,-0.40
2023-01-26T09:02:45.017Z,-0.30
2023-01-26T09:05:35.209Z,-0.20
2023-01-26T09:08:23.470Z,-0.10
2023-01-26T09:11:12.364Z,0.00
2023-01-26T09:14:01.828Z,0.10
2023-01-26T09:16:50.091Z,0.10
2023-01-26T09:19:38.954Z,0.00
2023-01-26T09:22:27.178Z,0.00
2023-01-26T09:25:15.839Z,0.00
2023-01-26T09:28:05.609Z,0.00
2023-01-26T09:30:55.359Z,0.10
2023-01-26T09:33:44.992Z,0.10
2023-01-26T09:36:33.669Z,0.00
2023-01-26T09:39:21.919Z,0.00
2023-01-26T09:42:31.303Z,0.10
2023-01-26T09:45:30.021Z,0.20
2023-01-26T09:48:28.488Z,0.20
2023-01-26T09:51:23.238Z,0.20
2023-01-26T09:54:21.461Z,0.30
2023-01-26T09:57:15.249Z,0.40
2023-01-26T10:00:09.212Z,0.50
2023-01-26T10:03:12.846Z,0.50
2023-01-26T10:06:08.478Z,0.60
2023-01-26T10:08:58.555Z,0.60
2023-01-26T10:11:49.686Z,0.60
2023-01-26T10:14:40.907Z,0.70
2023-01-26T10:17:31.861Z,0.80
2023-01-26T10:20:28.839Z,0.90
2023-01-26T10:23:23.275Z,0.90
2023-01-26T10:26:14.867Z,0.90
2023-01-26T10:29:03.174Z,0.90
2023-01-26T10:31:51.433Z,0.90
2023-01-26T10:34:41.115Z,1.00
2023-01-26T10:37:30.797Z,1.00
2023-01-26T10:40:21.203Z,1.10
2023-01-26T10:43:19.387Z,1.10
2023-01-26T10:46:07.549Z,1.10
2023-01-26T10:48:57.072Z,1.20
2023-01-26T10:51:47.453Z,1.20
2023-01-26T10:54:38.154Z,1.30
2023-01-26T10:57:30.465Z,1.30
2023-01-26T11:00:25.863Z,1.30
2023-01-26T11:03:19.754Z,1.40
2023-01-26T11:06:14.511Z,1.50
2023-01-26T11:09:18.354Z,1.60
2023-01-26T11:12:07.243Z,1.70
2023-01-26T11:15:04.092Z,1.70
2023-01-26T11:18:00.903Z,1.60
2023-01-26T11:20:54.983Z,1.60
2023-01-26T11:24:01.852Z,1.50
2023-01-26T11:27:07.985Z,1.50
2023-01-26T11:30:24.597Z,1.50
2023-01-26T11:33:21.683Z,1.60
2023-01-26T11:36:21.864Z,1.60
2023-01-26T11:39:17.910Z,1.50
2023-01-26T11:42:21.043Z,1.50
2023-01-26T11:45:31.446Z,1.40
2023-01-26T11:48:25.117Z,1.50
2023-01-26T11:51:21.592Z,1.60
2023-01-26T11:54:29.760Z,1.50
2023-01-26T11:57:28.631Z,1.40
2023-01-26T12:00:30.131Z,1.40
2023-01-26T12:03:26.237Z,1.50
2023-01-26T12:06:19.209Z,1.50
2023-01-26T12:09:18.909Z,1.50
2023-01-26T12:12:11.576Z,1.50
2023-01-26T12:15:06.089Z,1.40
2023-01-26T12:18:00.672Z,1.40
2023-01-26T12:20:55.089Z,1.40
2023-01-26T12:23:49.666Z,1.40
2023-01-26T12:26:46.542Z,1.40
2023-01-26T12:29:44.852Z,1.40
2023-01-26T12:32:34.726Z,1.40
2023-01-26T12:35:38.726Z,1.40
2023-01-26T12:38:43.877Z,1.40
2023-01-26T12:41:40.245Z,1.20
2023-01-26T12:44:37.236Z,1.30
2023-01-26T12:47:33.309Z,1.40
2023-01-26T12:50:27.709Z,1.30
2023-01-26T12:53:19.461Z,1.30
2023-01-26T12:56:14.674Z,1.40
2023-01-26T12:59:14.842Z,1.50
2023-01-26T13:02:27.480Z,1.50
2023-01-26T13:05:29.518Z,1.50
2023-01-26T13:08:41.341Z,1.50
2023-01-26T13:11:50.842Z,1.40
2023-01-26T13:14:59.937Z,1.40
2023-01-26T13:18:01.817Z,1.40
2023-01-26T13:20:50.950Z,1.40
2023-01-26T13:23:44.686Z,1.50
2023-01-26T13:26:52.548Z,1.50
2023-01-26T13:29:55.413Z,1.50
2023-01-26T13:32:54.341Z,1.50
2023-01-26T13:35:43.406Z,1.50
2023-01-26T13:38:36.367Z,1.60
2023-01-26T13:41:24.566Z,1.60
2023-01-26T13:44:19.429Z,1.50
2023-01-26T13:47:13.125Z,1.60
2023-01-26T13:50:01.314Z,1.60
2023-01-26T13:52:49.530Z,1.60
2023-01-26T13:55:42.245Z,1.70
2023-01-26T13:58:30.521Z,1.70
2023-01-26T14:01:20.652Z,1.70
2023-01-26T14:04:13.836Z,1.70
2023-01-26T14:07:05.617Z,1.70
2023-01-26T14:09:55.896Z,1.70
2023-01-26T14:12:46.823Z,1.70
2023-01-26T14:15:36.105Z,1.70
2023-01-26T14:18:26.408Z,1.80
2023-01-26T14:21:22.583Z,1.80
2023-01-26T14:24:11.346Z,1.80
2023-01-26T14:26:59.803Z,1.80
2023-01-26T14:29:49.004Z,1.80
2023-01-26T14:32:37.324Z,1.80
2023-01-26T14:35:28.266Z,1.80
2023-01-26T14:38:19.918Z,1.80
2023-01-26T14:41:13.872Z,1.80
2023-01-26T14:44:04.983Z,1.80
2023-01-26T14:46:59.219Z,1.80
2023-01-26T14:49:52.977Z,1.80
2023-01-26T14:52:46.188Z,1.80
2023-01-26T14:55:37.153Z,1.80
2023-01-26T14:58:29.136Z,1.80
2023-01-26T15:01:22.822Z,1.90
2023-01-26T15:04:23.798Z,1.80
2023-01-26T15:07:37.027Z,1.80
2023-01-26T15:10:34.997Z,1.80
2023-01-26T15:13:24.941Z,1.80
2023-01-26T15:16:18.267Z,1.90
2023-01-26T15:19:08.031Z,1.90
2023-01-26T15:21:56.311Z,1.90
2023-01-26T15:24:46.142Z,1.80
2023-01-26T15:27:37.179Z,1.80
2023-01-26T15:30:28.078Z,1.80
2023-01-26T15:33:58.683Z,1.80
2023-01-26T15:36:51.643Z,1.80
2023-01-26T15:39:39.958Z,1.80
2023-01-26T15:42:30.971Z,1.80
2023-01-26T15:45:26.313Z,1.80
2023-01-26T15:48:14.483Z,1.80
2023-01-26T15:51:02.716Z,1.80
2023-01-26T15:53:50.919Z,1.80
2023-01-26T15:56:39.310Z,1.80
2023-01-26T15:59:27.505Z,1.80
2023-01-26T16:02:18.623Z,1.80
2023-01-26T16:05:07.443Z,1.80
2023-01-26T16:07:55.611Z,1.80
2023-01-26T16:10:44.510Z,1.80
2023-01-26T16:13:34.142Z,1.80
2023-01-26T16:16:27.585Z,1.70
2023-01-26T16:19:34.453Z,1.80
2023-01-26T16:22:23.080Z,1.80
2023-01-26T16:25:22.367Z,1.80
2023-01-26T16:28:10.649Z,1.90
2023-01-26T16:31:01.444Z,1.90
2023-01-26T16:33:51.490Z,1.80
2023-01-26T16:36:41.204Z,1.80
2023-01-26T16:39:36.578Z,1.80
2023-01-26T16:42:24.759Z,1.80
2023-01-26T16:45:16.932Z,1.90
2023-01-26T16:48:13.268Z,1.90
2023-01-26T16:51:03.108Z,1.80
2023-01-26T16:53:53.435Z,1.80
2023-01-26T16:56:42.336Z,1.80
2023-01-26T16:59:30.556Z,1.90
2023-01-26T17:02:24.974Z,1.90
2023-01-26T17:05:16.121Z,1.90
2023-01-26T17:08:04.377Z,1.90
2023-01-26T17:11:01.965Z,1.90
2023-01-26T17:13:51.667Z,1.80
2023-01-26T17:16:40.217Z,1.80
2023-01-26T17:19:28.413Z,1.90
2023-01-26T17:22:16.555Z,1.90
2023-01-26T17:25:05.105Z,1.90
2023-01-26T17:27:54.597Z,1.90
2023-01-26T17:30:42.841Z,1.90
2023-01-26T17:33:31.074Z,1.80
2023-01-26T17:36:20.066Z,1.80
2023-01-26T17:39:08.208Z,1.80
2023-01-26T17:41:56.488Z,1.80
2023-01-26T17:44:46.014Z,1.80
2023-01-26T17:47:34.667Z,1.80
2023-01-26T17:50:22.857Z,1.80
2023-01-26T17:53:11.014Z,1.80
2023-01-26T17:55:59.203Z,1.80
2023-01-26T17:58:48.948Z,1.80
2023-01-26T18:01:38.531Z,1.80
2023-01-26T18:04:26.773Z,1.80
2023-01-26T18:07:14.903Z,1.90
2023-01-26T18:10:03.130Z,1.90
2023-01-26T18:12:51.785Z,1.90
2023-01-26T18:15:40.351Z,1.90
2023-01-26T18:18:31.139Z,2.00
2023-01-26T18:21:22.558Z,2.00
2023-01-26T18:24:11.513Z,1.90
2023-01-26T18:26:59.695Z,1.90
2023-01-26T18:29:48.311Z,1.90
2023-01-26T18:32:37.039Z,1.90
2023-01-26T18:35:26.801Z,1.90
2023-01-26T18:38:14.977Z,2.00
2023-01-26T18:41:03.251Z,2.00
2023-01-26T18:43:52.604Z,2.00
2023-01-26T18:46:40.811Z,2.00
2023-01-26T18:49:28.994Z,2.00
2023-01-26T18:52:18.623Z,2.00
2023-01-26T18:55:07.853Z,1.90
2023-01-26T18:57:56.179Z,2.00
2023-01-26T19:00:44.829Z,1.90
2023-01-26T19:03:33.528Z,1.90
2023-01-26T19:06:21.931Z,1.90
2023-01-26T19:09:11.785Z,1.90
2023-01-26T19:12:02.038Z,1.90
2023-01-26T19:14:50.235Z,1.90
2023-01-26T19:17:38.372Z,1.90
2023-01-26T19:20:26.690Z,1.90
2023-01-26T19:23:15.337Z,1.90
2023-01-26T19:26:10.748Z,1.90
2023-01-26T19:28:59.396Z,1.90
2023-01-26T19:31:47.742Z,1.90
2023-01-26T19:34:36.075Z,1.90
2023-01-26T19:37:24.345Z,2.00
2023-01-26T19:40:13.661Z,2.00
2023-01-26T19:43:03.192Z,2.00
2023-01-26T19:45:53.125Z,2.00
2023-01-26T19:48:41.540Z,2.00
2023-01-26T19:51:30.418Z,2.00
2023-01-26T19:54:18.600Z,2.00
2023-01-26T19:57:06.798Z,2.00
2023-01-26T19:59:56.302Z,2.00
2023-01-26T20:02:44.597Z,2.00
2023-01-26T20:05:36.290Z,2.00
2023-01-26T20:08:24.870Z,2.00
2023-01-26T20:11:13.488Z,2.00
2023-01-26T20:14:03.634Z,2.10
2023-01-26T20:16:53.152Z,2.10
2023-01-26T20:19:41.346Z,2.10
2023-01-26T20:22:33.560Z,2.10
2023-01-26T20:25:22.263Z,2.00
2023-01-26T20:28:10.499Z,2.10
2023-01-26T20:31:05.239Z,2.10
2023-01-26T20:33:55.423Z,2.00
2023-01-26T20:36:44.274Z,2.00
2023-01-26T20:39:32.480Z,2.00
2023-01-26T20:42:20.890Z,2.00
2023-01-26T20:45:09.825Z,2.00
2023-01-26T20:47:58.189Z,2.00
2023-01-26T20:50:47.715Z,2.00
2023-01-26T20:53:35.913Z,2.00
2023-01-26T20:56:24.592Z,2.00
2023-01-26T20:59:13.275Z,2.00
2023-01-26T21:02:01.493Z,2.10
2023-01-26T21:04:50.031Z,2.00
2023-01-26T21:07:39.631Z,2.10
2023-01-26T21:10:27.920Z,2.00
2023-01-26T21:13:16.200Z,2.10
2023-01-26T21:16:05.869Z,2.10
2023-01-26T21:18:54.716Z,2.10
2023-01-26T21:21:44.948Z,2.10
2023-01-26T21:24:36.114Z,2.10
2023-01-26T21:27:24.206Z,2.10
2023-01-26T21:30:13.672Z,2.10
2023-01-26T21:33:02.046Z,2.10
2023-01-26T21:35:56.834Z,2.10
2023-01-26T21:38:48.029Z,2.10
2023-01-26T21:41:54.891Z,2.10
2023-01-26T21:44:57.018Z,2.10
2023-01-26T21:47:45.214Z,2.10
2023-01-26T21:50:47.382Z,2.10
2023-01-26T21:53:35.566Z,2.10
2023-01-26T21:56:23.762Z,2.00
2023-01-26T21:59:14.891Z,2.10
2023-01-26T22:02:03.069Z,2.10
2023-01-26T22:04:51.892Z,2.10
2023-01-26T22:07:40.086Z,2.10
2023-01-26T22:10:28.222Z,2.10
2023-01-26T22:13:16.392Z,2.10
2023-01-26T22:16:06.655Z,2.10
2023-01-26T22:18:55.125Z,2.10
2023-01-26T22:21:44.117Z,2.10
2023-01-26T22:24:32.349Z,2.10
2023-01-26T22:27:20.553Z,2.10
2023-01-26T22:30:10.692Z,2.10
2023-01-26T22:33:00.688Z,2.20
2023-01-26T22:35:48.865Z,2.10
2023-01-26T22:38:38.299Z,2.10
2023-01-26T22:41:28.638Z,2.10
2023-01-26T22:44:16.897Z,2.20
2023-01-26T22:47:05.276Z,2.10
2023-01-26T22:49:54.812Z,2.10
2023-01-26T22:52:43.440Z,2.20
2023-01-26T22:55:31.600Z,2.10
2023-01-26T22:58:19.937Z,2.20
2023-01-26T23:01:09.887Z,2.10
2023-01-26T23:03:58.771Z,2.20
2023-01-26T23:06:48.294Z,2.20
2023-01-26T23:09:36.492Z,2.20
2023-01-26T23:12:24.710Z,2.20
2023-01-26T23:15:12.889Z,2.20
2023-01-26T23:18:01.018Z,2.20
2023-01-26T23:20:49.225Z,2.20
2023-01-26T23:23:40.312Z,2.20
2023-01-26T23:26:28.548Z,2.20
2023-01-26T23:29:16.701Z,2.20
2023-01-26T23:32:05.072Z,2.20
2023-01-26T23:34:53.298Z,2.20
2023-01-26T23:37:41.477Z,2.20
2023-01-26T23:40:31.015Z,2.20
2023-01-26T23:43:19.853Z,2.20
2023-01-26T23:46:09.161Z,2.10
2023-01-26T23:48:57.338Z,2.10
2023-01-26T23:51:45.547Z,2.10
2023-01-26T23:54:33.710Z,2.10
2023-01-26T23:57:23.224Z,2.20
